Time;durP1;ratioP1;P1;durP2;ratioP2;P2;SDS_P1;SDS_P2;PMS_P1;PMS_P2;Temp;Humidity;BMP_temperature;BMP_pressure;BME280_temperature;BME280_humidity;BME280_pressure;Samples;Min_cycle;Max_cycle;Signal;HPM_P1;HPM_P2
2022/04/27 00:00:25;;;;;;;6.50;5.90;;;8.90;99.90;;;-141.84;69.95;17365.63;5031804;28;20232;-53
2022/04/27 00:03:00;;;;;;;6.43;5.83;;;8.90;99.90;;;-141.84;70.39;17351.41;5031942;28;20221;-56
2022/04/27 00:05:29;;;;;;;7.40;5.80;;;8.90;99.90;;;-141.84;69.63;17322.97;5031453;28;20218;-56
2022/04/27 00:07:59;;;;;;;6.40;5.70;;;8.90;99.90;;;-141.84;69.88;17327.03;5031750;28;20243;-55
2022/04/27 00:10:27;;;;;;;7.10;6.20;;;8.90;99.90;;;-141.84;68.52;17347.34;5031433;28;20325;-55
2022/04/27 00:12:55;;;;;;;6.57;5.97;;;9.00;99.90;;;-141.84;67.80;17371.72;5031685;28;20297;-57
2022/04/27 00:15:26;;;;;;;6.77;6.07;;;9.10;99.90;;;-141.84;67.26;17379.84;5031083;28;20807;-56
2022/04/27 00:17:54;;;;;;;6.13;5.53;;;9.10;99.90;;;-141.84;66.98;17392.03;5031290;28;20253;-54
2022/04/27 00:20:23;;;;;;;6.27;5.67;;;9.20;99.90;;;-141.84;67.11;17381.88;5030102;28;20244;-55
2022/04/27 00:22:51;;;;;;;7.77;5.90;;;9.20;99.90;;;-141.84;65.76;17404.22;5031298;28;20236;-55
2022/04/27 00:25:21;;;;;;;6.30;5.53;;;9.30;99.90;;;-141.84;65.11;17444.84;5031309;28;20298;-56
2022/04/27 00:27:49;;;;;;;6.97;5.77;;;9.40;99.90;;;-141.84;64.71;17473.25;5031319;28;20210;-58
2022/04/27 00:30:17;;;;;;;6.03;5.53;;;9.50;99.90;;;-141.84;65.33;17414.38;5031151;28;20225;-58
2022/04/27 00:32:45;;;;;;;6.53;5.93;;;9.40;99.90;;;-141.84;65.59;17381.88;5031127;28;20229;-58
2022/04/27 00:35:13;;;;;;;7.63;6.00;;;9.30;99.90;;;-141.84;65.89;17434.69;5030690;28;20739;-56
2022/04/27 00:37:41;;;;;;;7.60;5.37;;;9.30;99.90;;;-141.84;67.05;17387.97;5030782;28;20775;-56
2022/04/27 00:40:11;;;;;;;6.30;5.70;;;9.20;99.90;;;-141.84;67.12;17379.84;5031027;28;20202;-58
2022/04/27 00:42:45;;;;;;;6.73;5.33;;;9.10;99.90;;;-141.84;67.12;17387.97;5030778;28;20279;-57
2022/04/27 00:45:13;;;;;;;6.30;5.70;;;9.10;99.90;;;-141.84;67.61;17390.00;5030671;28;20301;-57
2022/04/27 00:47:41;;;;;;;6.50;5.67;;;9.00;99.90;;;-141.84;67.74;17371.72;5030731;28;20225;-58
2022/04/27 00:50:11;;;;;;;6.27;5.63;;;9.00;99.90;;;-141.84;66.78;17400.16;5030755;28;20236;-53
2022/04/27 00:52:39;;;;;;;6.23;5.63;;;9.00;99.90;;;-141.84;67.56;17367.66;5030861;28;20204;-56
2022/04/27 00:55:09;;;;;;;6.03;5.53;;;9.00;99.90;;;-141.84;67.84;17375.78;5030900;28;20742;-54
2022/04/27 00:57:39;;;;;;;6.43;5.43;;;8.90;99.90;;;-141.84;68.77;17369.69;5030403;28;20247;-53
2022/04/27 01:00:10;;;;;;;6.13;5.53;;;8.80;99.90;;;-141.84;69.11;17355.47;5030371;28;20756;-55
2022/04/27 01:02:38;;;;;;;6.07;5.47;;;8.80;99.90;;;-141.84;68.62;17404.22;5030572;28;20236;-57
2022/04/27 01:05:09;;;;;;;6.17;5.53;;;8.70;99.90;;;-141.84;68.64;17359.53;5030458;28;20253;-55
2022/04/27 01:07:39;;;;;;;6.50;5.77;;;8.80;99.90;;;-141.84;69.63;17349.38;5030610;28;20182;-56
2022/04/27 01:10:10;;;;;;;5.70;5.20;;;8.70;99.90;;;-141.84;69.78;17335.16;5030661;28;20229;-53
2022/04/27 01:12:38;;;;;;;6.40;5.80;;;8.60;99.90;;;-141.84;70.36;17337.19;5030207;28;20248;-54
2022/04/27 01:15:10;;;;;;;5.90;5.40;;;8.60;99.90;;;-141.84;71.86;17341.25;5030168;28;20226;-54
2022/04/27 01:17:38;;;;;;;6.40;5.80;;;8.50;99.90;;;-141.84;73.15;17298.59;5030424;28;20312;-54
2022/04/27 01:20:08;;;;;;;6.17;5.57;;;8.30;99.90;;;-141.84;72.86;17306.72;5030200;28;20222;-55
2022/04/27 01:22:38;;;;;;;6.07;5.47;;;8.30;99.90;;;-141.84;73.11;17298.59;5030218;28;20670;-55
2022/04/27 01:25:07;;;;;;;5.93;4.93;;;8.20;99.90;;;-141.84;73.48;17306.72;5030228;28;20261;-54
2022/04/27 01:27:35;;;;;;;6.27;5.67;;;8.20;99.90;;;-141.84;74.01;17253.91;5030178;28;20237;-55
2022/04/27 01:30:03;;;;;;;6.40;5.80;;;8.10;99.90;;;-141.84;72.69;17296.56;5010489;28;20232;-57
2022/04/27 01:32:31;;;;;;;7.33;5.90;;;8.10;99.90;;;-141.84;72.32;17298.59;5013166;28;20242;-56
2022/04/27 01:34:59;;;;;;;6.13;5.33;;;8.20;99.90;;;-141.84;74.01;17292.50;5014899;28;20361;-52
2022/04/27 01:40:14;;;;;;;6.63;5.93;;;7.90;99.90;;;-141.84;75.84;17264.06;5015210;28;20201;-53
2022/04/27 01:42:42;;;;;;;6.73;5.77;;;7.90;99.90;;;-141.84;75.46;17245.78;5034107;28;20317;-54
2022/04/27 01:45:11;;;;;;;5.83;5.33;;;7.80;99.90;;;-141.84;74.63;17247.81;5034134;28;20735;-55
2022/04/27 01:47:39;;;;;;;6.93;5.60;;;7.90;99.90;;;-141.84;75.89;17245.78;5033851;28;20268;-59
2022/04/27 01:50:08;;;;;;;6.70;6.00;;;7.80;99.90;;;-141.84;76.99;17213.28;5034258;28;20222;-58
2022/04/27 01:55:23;;;;;;;5.87;5.37;;;7.70;99.90;;;-141.84;79.24;17154.38;5034060;28;20210;-60
2022/04/27 01:57:52;;;;;;;6.30;5.70;;;7.60;99.90;;;-141.84;77.27;17209.22;5034575;28;20229;-55
2022/04/27 02:00:21;;;;;;;7.27;6.00;;;7.70;99.90;;;-141.84;76.23;17229.53;5033942;28;20328;-57
2022/04/27 02:02:49;;;;;;;6.70;5.50;;;7.70;99.90;;;-141.84;76.13;17201.09;5033836;28;20232;-54
2022/04/27 02:05:17;;;;;;;5.83;5.33;;;7.80;99.90;;;-141.84;77.13;17182.81;5033983;28;20238;-55
2022/04/27 02:07:45;;;;;;;6.03;5.43;;;7.80;99.90;;;-141.84;78.31;17170.63;5034273;28;20316;-55
2022/04/27 02:10:13;;;;;;;6.23;5.63;;;7.80;99.90;;;-141.84;77.86;17176.72;5034224;28;20638;-55
2022/04/27 02:12:43;;;;;;;6.33;5.73;;;7.80;99.90;;;-141.84;77.37;17195.00;5033526;28;20232;-57
2022/04/27 02:15:11;;;;;;;6.23;5.63;;;7.80;99.90;;;-141.84;75.12;17223.44;5033638;28;20230;-57
2022/04/27 02:17:39;;;;;;;6.47;5.43;;;7.90;99.90;;;-141.84;73.12;17270.16;5033533;28;20252;-56
2022/04/27 02:20:09;;;;;;;6.30;5.70;;;8.00;99.90;;;-141.84;72.36;17266.09;5033341;28;20226;-56
2022/04/27 02:22:37;;;;;;;6.43;5.83;;;8.00;99.90;;;-141.84;71.41;17272.19;5013782;28;20187;-54
2022/04/27 02:25:06;;;;;;;7.13;5.10;;;8.10;99.90;;;-141.84;70.85;17300.63;5014161;28;20202;-53
2022/04/27 02:27:34;;;;;;;5.67;5.17;;;8.20;99.90;;;-141.84;69.79;17294.53;5013383;28;20232;-54
2022/04/27 02:30:05;;;;;;;6.33;5.53;;;8.30;99.90;;;-141.84;69.57;17322.97;5013603;28;20318;-55
2022/04/27 02:32:33;;;;;;;6.63;5.33;;;8.30;99.90;;;-141.84;69.84;17296.56;5013482;28;20241;-54
2022/04/27 02:35:01;;;;;;;5.60;5.07;;;8.40;99.90;;;-141.84;69.91;17292.50;5013493;28;20226;-57
2022/04/27 02:37:30;;;;;;;6.57;5.33;;;8.40;99.90;;;-141.84;70.27;17266.09;5013526;28;20207;-56
2022/04/27 02:39:58;;;;;;;6.23;5.63;;;8.50;99.90;;;-141.84;71.75;17245.78;5013827;28;20270;-53
2022/04/27 02:42:27;;;;;;;7.00;5.60;;;8.50;99.90;;;-141.84;73.50;17264.06;5031463;28;20240;-57
2022/04/27 02:44:56;;;;;;;6.10;5.50;;;8.40;99.90;;;-141.84;74.45;17231.56;5032182;28;20316;-56
2022/04/27 02:47:26;;;;;;;6.40;5.60;;;8.40;99.90;;;-141.84;73.99;17217.34;5032979;28;20304;-56
2022/04/27 02:52:39;;;;;;;6.70;5.50;;;8.40;99.90;;;-141.84;73.60;17249.84;5032715;28;20209;-56
2022/04/27 02:55:08;;;;;;;6.07;5.47;;;8.40;99.90;;;-141.84;74.87;17217.34;5033107;28;20638;-55
2022/04/27 02:57:36;;;;;;;6.63;5.50;;;8.30;99.90;;;-141.84;75.70;17192.97;5032535;28;20645;-55
2022/04/27 03:00:05;;;;;;;5.63;5.13;;;8.20;99.90;;;-141.84;75.04;17201.09;5032950;28;20313;-58
2022/04/27 03:02:34;;;;;;;6.30;5.43;;;8.20;99.90;;;-141.84;73.51;17247.81;5032804;28;20225;-56
2022/04/27 03:05:03;;;;;;;5.73;5.23;;;8.20;99.90;;;-141.84;74.04;17219.38;5032831;28;20226;-56
2022/04/27 03:07:31;;;;;;;6.37;5.60;;;8.20;99.90;;;-141.84;74.24;17227.50;5032820;28;20198;-54
2022/04/27 03:09:59;;;;;;;6.90;6.20;;;8.20;99.90;;;-141.84;75.60;17150.31;5033046;28;20293;-56
2022/04/27 03:12:27;;;;;;;6.70;5.97;;;8.20;99.90;;;-141.84;76.17;17207.19;5032778;28;20348;-57
2022/04/27 03:14:55;;;;;;;6.70;6.10;;;8.20;99.90;;;-141.84;76.08;17195.00;5032791;28;20313;-53
2022/04/27 03:17:23;;;;;;;8.00;5.97;;;8.20;99.90;;;-141.84;76.20;17186.88;5032223;28;20699;-56
2022/04/27 03:19:57;;;;;;;6.23;5.63;;;8.20;99.90;;;-141.84;75.58;17148.31;5032753;28;20229;-50
2022/04/27 03:22:25;;;;;;;6.53;5.90;;;8.20;99.90;;;-141.84;75.91;17184.84;5032628;28;20569;-58
2022/04/27 03:24:53;;;;;;;7.33;6.03;;;8.10;99.90;;;-141.84;75.91;17172.66;5033010;28;20289;-55
2022/04/27 03:27:21;;;;;;;8.93;5.80;;;8.10;99.90;;;-141.84;75.87;17207.19;5032390;28;20313;-55
2022/04/27 03:29:49;;;;;;;7.50;5.77;;;8.10;99.90;;;-141.84;76.35;17160.47;5014110;28;20313;-55
2022/04/27 03:32:17;;;;;;;6.40;5.63;;;8.20;99.90;;;-141.84;77.05;17166.56;5012646;28;20603;-56
2022/04/27 03:34:46;;;;;;;6.93;5.93;;;8.20;99.90;;;-141.84;77.14;17160.47;5012624;28;20321;-56
2022/04/27 03:37:15;;;;;;;7.53;5.80;;;8.10;99.90;;;-141.84;77.11;17132.06;5013019;28;20223;-56
2022/04/27 03:39:43;;;;;;;7.00;5.87;;;8.20;99.90;;;-141.84;76.70;17150.31;5012170;28;20710;-54
2022/04/27 03:42:14;;;;;;;7.00;6.30;;;8.20;99.90;;;-141.84;73.29;17213.28;5028806;28;20226;-54
2022/04/27 03:44:42;;;;;;;7.60;6.73;;;8.30;99.90;;;-141.84;74.75;17178.75;5032381;28;20606;-55
2022/04/27 03:47:10;;;;;;;8.60;6.57;;;8.30;99.90;;;-141.84;73.01;17219.38;5032314;28;20309;-55
2022/04/27 03:49:38;;;;;;;10.37;7.10;;;8.40;99.90;;;-141.84;73.24;17203.13;5031850;28;20670;-57
2022/04/27 03:52:06;;;;;;;10.10;7.47;;;8.40;99.90;;;-141.84;72.33;17225.47;5032726;28;20226;-55
2022/04/27 03:54:36;;;;;;;7.37;6.57;;;8.40;99.90;;;-141.84;73.61;17176.72;5031516;28;20387;-57
2022/04/27 03:57:05;;;;;;;8.80;7.10;;;8.40;99.90;;;-141.84;73.61;17203.13;5031803;28;20264;-56
2022/04/27 03:59:33;;;;;;;8.13;7.33;;;8.40;99.90;;;-141.84;73.48;17184.84;5031909;28;20229;-55
2022/04/27 04:02:01;;;;;;;7.90;7.07;;;8.40;99.90;;;-141.84;74.63;17205.16;5031792;28;20309;-55
2022/04/27 04:04:29;;;;;;;9.40;8.07;;;8.40;99.90;;;-141.84;74.06;17207.19;5031804;28;20233;-55
2022/04/27 04:06:58;;;;;;;8.93;8.03;;;8.40;99.90;;;-141.84;73.33;17217.34;5032293;28;20202;-57
2022/04/27 04:09:26;;;;;;;9.93;8.93;;;8.50;99.90;;;-141.84;72.19;17217.34;5031196;28;20237;-53
2022/04/27 04:11:55;;;;;;;11.43;8.17;;;8.50;99.90;;;-141.84;73.21;17199.06;5031680;28;20234;-54
2022/04/27 04:14:23;;;;;;;10.90;8.23;;;8.60;99.90;;;-141.84;74.41;17182.81;5031205;28;20605;-56
2022/04/27 04:16:51;;;;;;;9.47;8.53;;;8.60;99.90;;;-141.84;73.72;17168.59;5031879;28;20662;-56
2022/04/27 04:19:19;;;;;;;10.33;8.73;;;8.60;99.90;;;-141.84;72.49;17207.19;5032976;28;20236;-56
2022/04/27 04:21:47;;;;;;;9.43;8.53;;;8.70;99.90;;;-141.84;73.29;17209.22;5031697;28;20678;-57
2022/04/27 04:24:15;;;;;;;9.80;8.57;;;8.70;99.90;;;-141.84;73.48;17213.28;5031146;28;20726;-56
2022/04/27 04:29:31;;;;;;;10.40;8.53;;;8.60;99.90;;;-141.84;76.07;17134.09;5015769;28;20326;-56
2022/04/27 04:31:59;;;;;;;9.20;8.27;;;8.60;99.90;;;-141.84;76.67;17146.28;5011759;28;20222;-55
2022/04/27 04:34:27;;;;;;;8.70;7.87;;;8.60;99.90;;;-141.84;76.75;17125.97;5011286;28;20758;-57
2022/04/27 04:36:55;;;;;;;9.07;8.17;;;8.70;99.90;;;-141.84;74.43;17180.78;5012042;28;20605;-55
2022/04/27 04:39:23;;;;;;;9.30;8.03;;;8.70;99.90;;;-141.84;74.21;17182.81;5011144;28;20250;-56
2022/04/27 04:41:51;;;;;;;10.87;8.63;;;8.80;99.90;;;-141.84;74.40;17148.31;5025016;28;20230;-54
2022/04/27 04:44:19;;;;;;;10.63;8.17;;;8.80;99.90;;;-141.84;73.96;17160.47;5031140;28;20259;-56
2022/04/27 04:46:49;;;;;;;8.70;7.80;;;8.80;99.90;;;-141.84;74.26;17190.94;5031194;28;20236;-55
2022/04/27 04:49:17;;;;;;;9.97;8.33;;;8.90;99.90;;;-141.84;74.07;17168.59;5031588;28;20202;-55
2022/04/27 04:51:45;;;;;;;9.80;8.20;;;9.00;99.90;;;-141.84;73.64;17160.47;5030788;28;20320;-55
2022/04/27 04:54:13;;;;;;;8.63;7.83;;;9.00;99.90;;;-141.84;72.33;17168.59;5030626;28;20225;-60
2022/04/27 04:56:41;;;;;;;11.60;8.30;;;9.20;99.90;;;-141.84;73.27;17195.00;5030563;28;20225;-59
2022/04/27 04:59:09;;;;;;;7.70;6.90;;;9.20;99.90;;;-141.84;71.43;17201.09;5030859;28;20232;-59
2022/04/27 05:01:37;;;;;;;8.40;7.60;;;9.20;99.90;;;-141.84;71.14;17201.09;5030874;28;20297;-56
2022/04/27 05:04:07;;;;;;;7.40;6.70;;;9.30;99.90;;;-141.84;71.11;17207.19;5031349;28;20205;-55
2022/04/27 05:06:35;;;;;;;7.70;6.93;;;9.30;99.90;;;-141.84;70.77;17215.31;5030107;28;20345;-54
2022/04/27 05:09:03;;;;;;;7.70;6.77;;;9.40;99.90;;;-141.84;70.03;17233.59;5030267;28;20245;-56
2022/04/27 05:11:31;;;;;;;7.70;6.90;;;9.40;99.90;;;-141.84;69.69;17280.31;5030419;28;20221;-56
2022/04/27 05:13:59;;;;;;;7.67;6.53;;;9.50;99.90;;;-141.84;70.01;17274.22;5030089;28;20229;-56
2022/04/27 05:16:27;;;;;;;8.77;6.63;;;9.50;99.90;;;-141.84;69.36;17253.91;5030433;28;20209;-57
2022/04/27 05:18:55;;;;;;;7.83;6.73;;;9.60;99.90;;;-141.84;69.34;17245.78;5030922;28;20569;-57
2022/04/27 05:21:24;;;;;;;8.53;6.90;;;9.60;99.90;;;-141.84;69.30;17272.19;5030419;28;20310;-56
2022/04/27 05:23:53;;;;;;;8.33;6.73;;;9.60;99.90;;;-141.84;68.87;17255.94;5030256;28;20226;-54
2022/04/27 05:26:21;;;;;;;8.23;6.20;;;9.70;99.90;;;-141.84;69.74;17245.78;5030254;28;20305;-54
2022/04/27 05:34:20;;;;;;;6.97;6.20;;;9.80;99.90;;;-141.84;68.01;17310.78;5030787;28;20178;-55
2022/04/27 05:36:50;;;;;;;7.93;6.03;;;9.80;99.90;;;-141.84;67.40;17270.16;5030330;28;20633;-56
2022/04/27 05:39:20;;;;;;;7.53;6.50;;;9.90;99.90;;;-141.84;66.63;17320.94;5029910;28;20530;-55
2022/04/27 05:41:49;;;;;;;8.73;6.67;;;10.00;99.90;;;-141.84;66.26;17312.81;5030235;28;20252;-56
2022/04/27 05:44:19;;;;;;;7.10;6.40;;;10.10;99.90;;;-141.84;66.72;17310.78;5030301;28;20245;-56
2022/04/27 05:46:47;;;;;;;7.17;6.43;;;10.10;99.90;;;-141.84;65.93;17329.06;5030289;28;20295;-55
2022/04/27 05:49:15;;;;;;;6.90;6.20;;;10.10;99.90;;;-141.84;65.32;17347.34;5030960;28;20216;-55
2022/04/27 05:51:43;;;;;;;7.63;6.30;;;10.20;99.90;;;-141.84;64.32;17367.66;5029935;28;20324;-55
2022/04/27 05:54:14;;;;;;;7.57;6.77;;;10.30;99.90;;;-141.84;65.37;17316.88;5030026;28;20283;-55
2022/04/27 05:56:43;;;;;;;6.33;5.73;;;10.20;99.90;;;-141.84;65.37;17353.44;5029685;28;20229;-56
2022/04/27 05:59:12;;;;;;;7.53;6.07;;;10.30;99.90;;;-141.84;64.70;17363.59;5030425;28;20653;-53
2022/04/27 06:01:41;;;;;;;7.60;6.37;;;10.30;99.90;;;-141.84;65.37;17345.31;5030031;28;20293;-57
2022/04/27 06:04:09;;;;;;;7.77;6.10;;;10.20;99.90;;;-141.84;65.77;17375.78;5030377;28;20296;-55
2022/04/27 06:06:37;;;;;;;7.60;6.17;;;10.30;99.90;;;-141.84;64.92;17333.13;5029518;28;20221;-58
2022/04/27 06:09:05;;;;;;;8.27;6.77;;;10.40;99.90;;;-141.84;63.54;17385.94;5029913;28;20860;-52
2022/04/27 06:11:35;;;;;;;6.37;5.77;;;10.50;99.90;;;-141.84;63.57;17381.88;5029539;28;20610;-55
2022/04/27 06:14:03;;;;;;;7.63;6.00;;;10.60;99.90;;;-141.84;63.54;17383.91;5029847;28;20554;-56
2022/04/27 06:16:33;;;;;;;6.43;5.83;;;10.70;99.90;;;-141.84;63.19;17412.34;5029901;28;20602;-55
2022/04/27 06:19:01;;;;;;;6.83;6.23;;;10.70;99.90;;;-141.84;62.77;17396.09;5033507;28;20213;-56
2022/04/27 06:21:31;;;;;;;7.00;6.30;;;10.90;99.90;;;-141.84;61.95;17422.50;5033421;28;20313;-57
2022/04/27 06:24:01;;;;;;;7.33;6.50;;;11.10;99.90;;;-141.84;61.45;17457.03;5033564;28;20233;-56
2022/04/27 06:26:33;;;;;;;6.40;5.80;;;11.20;99.90;;;-141.84;60.86;17473.25;5033340;28;20222;-55
2022/04/27 06:29:02;;;;;;;11.33;6.40;;;11.40;99.90;;;-141.84;59.15;17517.94;5033410;28;20718;-53
2022/04/27 06:31:30;;;;;;;7.03;6.33;;;11.50;99.90;;;-141.84;58.92;17534.19;5033804;28;20296;-54
2022/04/27 06:33:59;;;;;;;7.13;6.30;;;11.60;99.90;;;-141.84;58.17;17550.44;5034137;28;20199;-54
2022/04/27 06:36:27;;;;;;;6.87;6.17;;;11.80;99.90;;;-141.84;57.82;17570.75;5033136;28;20670;-57
2022/04/27 06:38:55;;;;;;;9.50;7.30;;;11.90;99.90;;;-141.84;58.92;17522.00;5033103;28;20237;-55
2022/04/27 06:41:23;;;;;;;7.23;6.37;;;11.80;99.90;;;-141.84;58.70;17558.56;5032980;28;20218;-57
2022/04/27 06:43:51;;;;;;;6.67;6.07;;;11.90;99.90;;;-141.84;57.50;17570.75;5033430;28;20316;-54
2022/04/27 06:46:21;;;;;;;8.90;6.30;;;12.10;99.90;;;-141.84;58.80;17530.13;5033630;28;20289;-54
2022/04/27 06:48:49;;;;;;;7.00;6.10;;;12.10;99.90;;;-141.84;57.84;17542.31;5026405;28;20237;-55
2022/04/27 06:51:18;;;;;;;6.45;5.70;;;12.20;99.90;;;-141.84;55.25;17684.50;5013141;28;20245;-56
2022/04/27 06:53:47;;;;;;;6.93;6.13;;;12.40;99.90;;;-141.84;55.28;17613.41;5013172;28;20237;-58
2022/04/27 06:56:16;;;;;;;6.53;5.93;;;12.50;99.90;;;-141.84;56.04;17611.38;5012925;28;20657;-57
2022/04/27 06:58:45;;;;;;;6.50;5.80;;;12.50;99.90;;;-141.84;56.79;17595.13;5012916;28;20581;-58
2022/04/27 07:01:14;;;;;;;8.47;6.10;;;12.40;99.90;;;-141.84;56.58;17591.06;5013727;28;20203;-59
2022/04/27 07:03:44;;;;;;;7.10;6.00;;;12.40;99.90;;;-141.84;55.98;17603.25;5032335;28;20222;-55
2022/04/27 07:06:13;;;;;;;7.13;6.00;;;12.50;99.90;;;-141.84;56.52;17615.44;5032882;28;20229;-55
2022/04/27 07:08:41;;;;;;;6.28;5.68;;;12.40;99.90;;;-141.84;57.12;17597.16;5032851;28;20253;-58
2022/04/27 07:11:09;;;;;;;6.47;5.90;;;12.40;99.90;;;-141.84;56.00;17611.38;5032223;28;20731;-55
2022/04/27 07:13:37;;;;;;;6.77;6.10;;;12.30;99.90;;;-141.84;56.66;17591.06;5032579;28;20213;-55
2022/04/27 07:16:06;;;;;;;6.47;5.80;;;12.10;99.90;;;-141.84;57.28;17550.44;5033352;28;20206;-56
2022/04/27 07:18:34;;;;;;;9.10;6.50;;;12.10;99.90;;;-141.84;57.22;17570.75;5032472;28;20230;-55
2022/04/27 07:21:05;;;;;;;7.57;6.03;;;12.10;99.90;;;-141.84;56.18;17584.97;5032552;28;20252;-56
2022/04/27 07:23:53;;;;;;;8.27;6.37;;;12.10;99.90;;;-141.84;55.73;17619.50;5032258;28;20226;-55
2022/04/27 07:26:21;;;;;;;6.90;6.20;;;12.20;99.90;;;-141.84;55.47;17621.53;5032432;28;20252;-58
2022/04/27 07:28:49;;;;;;;9.23;6.33;;;12.40;99.90;;;-141.84;54.79;17639.81;5032178;28;20795;-58
2022/04/27 07:31:17;;;;;;;8.13;6.13;;;12.40;99.90;;;-141.84;55.33;17627.63;5032922;28;20556;-56
2022/04/27 07:33:45;;;;;;;7.43;6.33;;;12.50;99.90;;;-141.84;54.86;17668.25;5032374;28;20229;-57
2022/04/27 07:36:14;;;;;;;7.57;6.17;;;12.60;99.90;;;-141.84;55.32;17631.69;5032250;28;20226;-55
2022/04/27 07:38:42;;;;;;;7.00;6.30;;;12.70;99.90;;;-141.84;55.22;17629.66;5032031;28;20230;-57
2022/04/27 07:41:11;;;;;;;8.13;6.17;;;12.80;99.90;;;-141.84;53.80;17672.31;5032197;28;20610;-57
2022/04/27 07:43:39;;;;;;;6.93;6.23;;;13.00;99.90;;;-141.84;52.76;17704.81;5032395;28;20213;-57
2022/04/27 07:46:08;;;;;;;7.00;6.20;;;13.20;99.90;;;-141.84;53.16;17660.13;5032914;28;20202;-55
2022/04/27 07:48:36;;;;;;;9.63;6.57;;;13.00;99.90;;;-141.84;52.71;17729.19;5032051;28;20308;-56
2022/04/27 07:51:06;;;;;;;6.77;6.17;;;13.10;99.90;;;-141.84;52.92;17717.00;5032025;28;20717;-58
2022/04/27 07:53:36;;;;;;;6.93;6.18;;;13.00;99.90;;;-141.84;52.50;17725.13;5031849;28;20337;-56
2022/04/27 07:56:05;;;;;;;6.20;5.55;;;13.20;99.90;;;-141.84;51.60;17721.06;5031910;28;20253;-53
2022/04/27 07:58:34;;;;;;;6.67;6.07;;;13.20;99.90;;;-141.84;52.18;17723.09;5031524;28;20308;-55
2022/04/27 08:01:08;;;;;;;8.27;6.40;;;13.20;99.90;;;-141.84;51.90;17717.00;5032842;28;20186;-55
2022/04/27 08:03:37;;;;;;;7.93;6.43;;;13.20;99.90;;;-141.84;52.18;17733.25;5031656;28;20225;-56
2022/04/27 08:06:05;;;;;;;7.87;6.07;;;13.20;99.90;;;-141.84;51.19;17727.16;5031882;28;20310;-55
2022/04/27 08:08:36;;;;;;;8.75;6.80;;;13.30;99.90;;;-141.84;51.84;17737.31;5031396;28;20226;-54
2022/04/27 08:11:04;;;;;;;9.00;6.73;;;13.30;99.90;;;-141.84;51.54;17729.19;5031635;28;20413;-57
2022/04/27 08:13:32;;;;;;;7.55;6.35;;;13.40;99.90;;;-141.84;51.78;17739.34;5031466;28;20216;-56
2022/04/27 08:16:00;;;;;;;7.50;6.37;;;13.20;99.90;;;-141.84;51.66;17741.38;5032362;28;20633;-54
2022/04/27 08:18:28;;;;;;;7.17;6.30;;;13.20;99.90;;;-141.84;51.95;17729.19;5031309;28;20763;-56
2022/04/27 08:21:15;;;;;;;9.07;6.28;;;13.10;99.90;;;-141.84;51.68;17708.88;5031578;28;20342;-58
2022/04/27 08:23:47;;;;;;;8.52;6.47;;;13.00;99.90;;;-141.84;52.45;17712.94;5031190;28;20240;-55
2022/04/27 08:26:16;;;;;;;7.10;6.40;;;12.80;99.90;;;-141.84;52.66;17686.53;5031602;28;20229;-57
2022/04/27 08:28:45;;;;;;;8.37;7.00;;;12.80;99.90;;;-141.84;53.85;17666.22;5029557;28;20245;-60
2022/04/27 08:31:17;;;;;;;8.27;6.50;;;12.70;99.90;;;-141.84;54.40;17629.66;5031323;28;20467;-60
2022/04/27 08:33:45;;;;;;;7.77;6.60;;;12.60;99.90;;;-141.84;53.86;17692.63;5031153;28;20296;-60
2022/04/27 08:36:14;;;;;;;6.93;6.27;;;12.70;99.90;;;-141.84;50.88;17749.50;5031020;28;20308;-61
2022/04/27 08:38:58;;;;;;;7.10;6.40;;;12.80;99.90;;;-141.84;49.73;17790.13;5030735;28;20317;-61
2022/04/27 08:41:28;;;;;;;6.87;6.07;;;13.00;99.90;;;-141.84;49.24;17812.47;5021259;28;20236;-55
2022/04/27 08:43:57;;;;;;;6.63;5.93;;;13.00;99.90;;;-141.84;49.35;17794.19;5032110;28;20264;-58
2022/04/27 08:46:26;;;;;;;7.07;6.33;;;13.00;99.90;;;-141.84;49.03;17794.19;5032147;28;20198;-54
2022/04/27 08:48:54;;;;;;;5.67;5.07;;;13.20;99.90;;;-141.84;49.94;17796.22;5031901;28;20206;-55
2022/04/27 08:51:23;;;;;;;8.13;6.17;;;13.20;99.90;;;-141.84;49.75;17769.81;5031945;28;20202;-56
2022/04/27 08:53:51;;;;;;;8.00;5.63;;;13.20;99.90;;;-141.84;49.32;17820.59;5031410;28;20301;-55
2022/04/27 08:56:20;;;;;;;7.07;5.70;;;13.20;99.90;;;-141.84;49.61;17824.66;5031670;28;20209;-56
2022/04/27 08:58:48;;;;;;;7.23;5.77;;;13.20;99.90;;;-141.84;48.91;17826.69;5031751;28;20222;-57
2022/04/27 09:01:16;;;;;;;7.97;5.77;;;13.40;99.90;;;-141.84;49.38;17806.38;5031960;28;20285;-56
2022/04/27 09:03:44;;;;;;;6.57;5.90;;;13.40;99.90;;;-141.84;49.45;17814.50;5031876;28;20203;-57
2022/04/27 09:06:16;;;;;;;6.13;5.15;;;13.50;99.90;;;-141.84;46.74;17885.59;5031829;28;20202;-59
2022/04/27 09:08:45;;;;;;;8.10;5.13;;;13.40;99.90;;;-141.84;46.72;17869.34;5031675;28;20206;-58
2022/04/27 09:11:20;;;;;;;7.45;5.38;;;13.50;99.90;;;-141.84;45.37;17940.47;5031478;28;20206;-58
2022/04/27 09:13:51;;;;;;;7.00;5.67;;;13.60;99.90;;;-141.84;43.79;17989.22;5031356;28;20209;-59
2022/04/27 09:16:22;;;;;;;5.97;4.68;;;13.70;99.90;;;-141.84;43.20;18009.53;5031569;28;20622;-58
2022/04/27 09:22:01;;;;;;;6.15;5.10;;;13.80;99.90;;;-141.84;42.90;18037.97;5031483;28;20421;-56
2022/04/27 09:24:46;;;;;;;5.77;4.60;;;13.90;99.90;;;-141.84;43.43;18011.56;5031234;28;20201;-57
2022/04/27 09:27:18;;;;;;;6.70;4.72;;;13.90;99.90;;;-141.84;42.56;18040.00;5031408;28;20192;-58
2022/04/27 09:29:57;;;;;;;6.50;5.75;;;14.00;99.90;;;-141.84;42.98;18048.13;5031513;28;20213;-58
2022/04/27 09:32:26;;;;;;;5.50;5.00;;;14.20;99.90;;;-141.84;43.66;18062.34;5031490;28;20576;-58
2022/04/27 09:34:56;;;;;;;5.75;5.25;;;14.20;99.90;;;-141.84;43.83;18033.91;5031003;28;20857;-60
2022/04/27 09:37:27;;;;;;;5.57;5.00;;;14.30;99.90;;;-141.84;43.94;18050.16;5031486;28;20603;-59
2022/04/27 09:40:05;;;;;;;5.50;5.00;;;14.30;99.90;;;-141.84;43.16;18037.97;5031173;28;20210;-57
2022/04/27 09:42:36;;;;;;;7.60;5.72;;;14.40;99.90;;;-141.84;42.84;18072.50;5030834;28;20752;-56
2022/04/27 09:45:18;;;;;;;6.00;4.97;;;14.50;99.90;;;-141.84;42.44;18062.34;5031180;28;20286;-57
2022/04/27 09:47:48;;;;;;;5.18;4.68;;;14.60;99.90;;;-141.84;41.26;18159.84;5031268;28;20212;-57
2022/04/27 09:50:17;;;;;;;5.50;5.00;;;14.60;99.90;;;-141.84;41.60;18135.47;5031422;28;20288;-57
2022/04/27 09:52:45;;;;;;;6.95;5.20;;;14.70;99.90;;;-141.84;40.91;18141.56;5031817;28;20237;-57
2022/04/27 09:55:14;;;;;;;5.53;4.80;;;14.90;99.90;;;-141.84;40.03;18190.31;5035028;28;20203;-59
2022/04/27 09:57:56;;;;;;;4.88;4.13;;;15.00;99.90;;;-141.84;39.43;18277.69;5035151;28;20198;-59
2022/04/27 10:00:25;;;;;;;4.85;3.92;;;15.10;99.90;;;-141.84;38.75;18269.56;5034865;28;20212;-57
2022/04/27 10:02:57;;;;;;;5.65;4.72;;;15.20;99.90;;;-141.84;37.89;18330.50;5034873;28;20212;-61
2022/04/27 10:05:27;;;;;;;6.30;4.55;;;15.30;99.90;;;-141.84;37.68;18330.50;5034980;28;20186;-56
2022/04/27 10:07:56;;;;;;;5.18;4.68;;;15.40;99.90;;;-141.84;37.45;18367.06;5034994;28;20284;-56
2022/04/27 10:10:25;;;;;;;5.05;4.53;;;15.50;99.90;;;-141.84;38.03;18326.44;5034520;28;20236;-57
2022/04/27 10:12:55;;;;;;;5.63;4.65;;;15.60;99.90;;;-141.84;38.54;18328.47;5034521;28;20217;-56
2022/04/27 10:15:23;;;;;;;7.72;4.68;;;15.60;99.90;;;-141.84;38.68;18330.50;5035004;28;20206;-58
2022/04/27 10:17:52;;;;;;;5.63;4.55;;;15.60;99.90;;;-141.84;38.32;18332.53;5034664;28;20297;-57
2022/04/27 10:20:31;;;;;;;5.10;4.60;;;15.60;99.90;;;-141.84;37.88;18367.06;5034139;28;20222;-59
2022/04/27 10:23:24;;;;;;;5.82;4.40;;;15.70;99.90;;;-141.84;37.59;18379.25;5034464;28;20222;-60
2022/04/27 10:26:13;;;;;;;4.70;4.30;;;15.70;99.90;;;-141.84;38.30;18352.84;5034236;28;20221;-58
2022/04/27 10:28:57;;;;;;;5.07;4.55;;;15.60;99.90;;;-141.84;37.16;18393.47;5034001;28;20187;-59
2022/04/27 10:31:59;;;;;;;6.03;4.75;;;15.70;99.90;;;-141.84;37.56;18377.22;5034317;28;20193;-59
2022/04/27 10:34:28;;;;;;;5.53;5.03;;;15.80;99.90;;;-141.84;37.55;18397.53;5034652;28;20252;-59
2022/04/27 10:36:58;;;;;;;4.85;4.30;;;15.80;99.90;;;-141.84;37.41;18365.03;5034399;28;20206;-57
2022/04/27 10:39:28;;;;;;;5.97;4.85;;;15.70;99.90;;;-141.84;37.07;18450.38;5032919;28;20221;-57